LKTV weather

Tabor Vsechov Ultralight Airport
Tabor, South Bohemian Region, Czechia

Public forecast

Using degrees Celsius for public forecast. Weather courtesy of forecast.io.

METAR (pilot weather report)

Closest report is Kbely Air Base, 41.2 nm (76.2 km) N. Retrieved 2019/09/17 05:00 UTC (53 minutes ago):

LKKB 170500Z 24002KT 9999 SCT033 BKN037 11/09 Q1017 NOSIG

TAF (pilot weather forecast)

Forecast is more than 12 hours old.

Closest forecast is Kbely Air Base, 41.2 nm (76.2 km) N. Retrieved 2019/09/16 00:00 UTC (1 day ago):

TAF LKKB 162300Z 1700/1800 36008KT 3000 -RA BR SCT003 BKN011 TEMPO 1700/1705 1500 RA BR SCT002 BKN006 BECMG 1704/1706 NSW BECMG 1707/1709 9999 BKN025 BECMG 1708/1710 29008KT TEMPO 1710/1800 29014G24KT